createdAt,value
2018-02-21T00:00:12.433Z,1.56
2018-02-21T00:02:38.648Z,1.54
2018-02-21T00:05:04.793Z,1.51
2018-02-21T00:07:30.988Z,1.45
2018-02-21T00:09:57.250Z,1.35
2018-02-21T00:12:23.475Z,1.28
2018-02-21T00:14:49.692Z,1.20
2018-02-21T00:17:15.866Z,1.21
2018-02-21T00:19:42.093Z,1.21
2018-02-21T00:22:08.284Z,1.17
2018-02-21T00:24:34.468Z,1.18
2018-02-21T00:27:00.681Z,1.15
2018-02-21T00:29:26.867Z,1.18
2018-02-21T00:31:53.004Z,1.17
2018-02-21T00:34:19.230Z,1.14
2018-02-21T00:36:45.413Z,1.14
2018-02-21T00:39:11.635Z,1.13
2018-02-21T00:41:37.876Z,1.09
2018-02-21T00:44:04.060Z,1.06
2018-02-21T00:46:30.275Z,1.02
2018-02-21T00:48:56.399Z,1.00
2018-02-21T00:51:22.636Z,0.98
2018-02-21T00:53:48.820Z,0.93
2018-02-21T00:56:14.995Z,0.88
2018-02-21T00:58:41.180Z,0.84
2018-02-21T01:01:07.392Z,0.79
2018-02-21T01:03:33.549Z,0.78
2018-02-21T01:05:59.737Z,0.79
2018-02-21T01:08:25.918Z,0.82
2018-02-21T01:10:52.182Z,0.83
2018-02-21T01:13:18.328Z,0.87
2018-02-21T01:15:44.489Z,0.89
2018-02-21T01:18:10.696Z,0.91
2018-02-21T01:20:36.889Z,0.89
2018-02-21T01:23:03.041Z,0.88
2018-02-21T01:25:29.254Z,0.85
2018-02-21T01:27:55.446Z,0.85
2018-02-21T01:30:21.724Z,0.80
2018-02-21T01:32:47.871Z,0.78
2018-02-21T01:35:14.053Z,0.73
2018-02-21T01:37:40.245Z,0.71
2018-02-21T01:40:06.456Z,0.70
2018-02-21T01:42:32.646Z,0.70
2018-02-21T01:44:58.883Z,0.70
2018-02-21T01:47:25.065Z,0.68
2018-02-21T01:49:51.353Z,0.69
2018-02-21T01:52:17.480Z,0.66
2018-02-21T01:54:43.814Z,0.62
2018-02-21T01:57:10.018Z,0.59
2018-02-21T01:59:36.214Z,0.54
2018-02-21T02:02:02.452Z,0.50
2018-02-21T02:04:28.692Z,0.51
2018-02-21T02:06:54.835Z,0.50
2018-02-21T02:09:21.083Z,0.46
2018-02-21T02:11:47.301Z,0.41
2018-02-21T02:14:13.479Z,0.42
2018-02-21T02:16:39.661Z,0.42
2018-02-21T02:19:05.827Z,0.39
2018-02-21T02:21:32.048Z,0.31
2018-02-21T02:23:58.203Z,0.30
2018-02-21T02:26:24.398Z,0.29
2018-02-21T02:28:50.582Z,0.31
2018-02-21T02:31:16.805Z,0.31
2018-02-21T02:33:42.983Z,0.28
2018-02-21T02:36:09.234Z,0.26
2018-02-21T02:38:40.188Z,0.22
2018-02-21T02:41:06.453Z,0.28
2018-02-21T02:43:32.670Z,0.27
2018-02-21T02:45:58.859Z,0.27
2018-02-21T02:48:25.042Z,0.27
2018-02-21T02:50:51.348Z,0.33
2018-02-21T02:53:17.507Z,0.38
2018-02-21T02:55:43.693Z,0.38
2018-02-21T02:58:09.909Z,0.40
2018-02-21T03:00:36.126Z,0.36
2018-02-21T03:03:02.347Z,0.33
2018-02-21T03:05:28.604Z,0.26
2018-02-21T03:07:54.816Z,0.20
2018-02-21T03:10:21.021Z,0.14
2018-02-21T03:12:47.240Z,0.10
2018-02-21T03:15:13.408Z,0.05
2018-02-21T03:17:39.593Z,0.01
2018-02-21T03:20:05.833Z,-0.03
2018-02-21T03:22:32.017Z,-0.03
2018-02-21T03:24:58.153Z,-0.04
2018-02-21T03:27:24.349Z,-0.08
2018-02-21T03:29:50.546Z,-0.06
2018-02-21T03:32:21.635Z,-0.07
2018-02-21T03:34:47.901Z,-0.10
2018-02-21T03:37:14.077Z,-0.13
2018-02-21T03:39:40.275Z,-0.15
2018-02-21T03:42:06.485Z,-0.16
2018-02-21T03:44:32.689Z,-0.17
2018-02-21T03:46:58.866Z,-0.20
2018-02-21T03:49:25.098Z,-0.21
2018-02-21T03:51:51.325Z,-0.23
2018-02-21T03:54:17.503Z,-0.23
2018-02-21T03:56:43.705Z,-0.22
2018-02-21T03:59:09.878Z,-0.22
2018-02-21T04:01:36.221Z,-0.22
2018-02-21T04:04:02.455Z,-0.21
2018-02-21T04:06:28.722Z,-0.16
2018-02-21T04:08:54.887Z,-0.05
2018-02-21T04:11:21.178Z,-0.01
2018-02-21T04:16:26.953Z,0.24
2018-02-21T04:18:53.467Z,0.38
2018-02-21T04:21:19.752Z,0.46
2018-02-21T04:23:49.199Z,0.55
2018-02-21T04:26:15.378Z,0.55
2018-02-21T04:31:55.303Z,0.58
2018-02-21T04:34:21.634Z,0.59
2018-02-21T04:37:07.843Z,0.56
2018-02-21T04:39:34.095Z,0.55
2018-02-21T04:42:00.312Z,0.50
2018-02-21T04:44:26.506Z,0.48
2018-02-21T04:46:52.700Z,0.47
2018-02-21T04:49:18.959Z,0.41
2018-02-21T04:51:45.181Z,0.41
2018-02-21T04:54:12.428Z,0.37
2018-02-21T04:56:44.636Z,0.39
2018-02-21T04:59:25.812Z,0.37
2018-02-21T05:01:52.098Z,0.38
2018-02-21T05:04:18.587Z,0.43
2018-02-21T05:06:44.786Z,0.39
2018-02-21T05:09:10.956Z,0.37
2018-02-21T05:11:37.182Z,0.33
2018-02-21T05:14:03.459Z,0.40
2018-02-21T05:16:29.602Z,0.41
2018-02-21T05:18:55.791Z,0.43
2018-02-21T05:21:22.019Z,0.43
2018-02-21T05:23:48.423Z,0.43
2018-02-21T05:26:14.551Z,0.40
2018-02-21T05:28:40.765Z,0.47
2018-02-21T05:31:07.059Z,0.46
2018-02-21T05:33:33.252Z,0.47
2018-02-21T05:35:59.525Z,0.47
2018-02-21T05:38:25.680Z,0.48
2018-02-21T05:40:51.927Z,0.47
2018-02-21T05:43:18.158Z,0.46
2018-02-21T05:45:44.299Z,0.50
2018-02-21T05:48:10.499Z,0.49
2018-02-21T05:50:36.735Z,0.45
2018-02-21T05:53:02.990Z,0.46
2018-02-21T05:55:29.167Z,0.43
2018-02-21T05:57:55.387Z,0.43
2018-02-21T06:00:21.579Z,0.39
2018-02-21T06:02:47.827Z,0.37
2018-02-21T06:05:14.059Z,0.36
2018-02-21T06:07:40.256Z,0.30
2018-02-21T06:10:06.443Z,0.27
2018-02-21T06:12:32.670Z,0.24
2018-02-21T06:14:58.849Z,0.20
2018-02-21T06:17:25.158Z,0.22
2018-02-21T06:19:51.356Z,0.24
2018-02-21T06:22:17.565Z,0.20
2018-02-21T06:24:43.756Z,0.17
2018-02-21T06:27:09.965Z,0.15
2018-02-21T06:29:36.281Z,0.13
2018-02-21T06:32:02.541Z,0.06
2018-02-21T06:34:28.771Z,0.04
2018-02-21T06:36:54.947Z,0.00
2018-02-21T06:39:21.181Z,-0.05
2018-02-21T06:41:47.494Z,-0.11
2018-02-21T06:44:13.725Z,-0.19
2018-02-21T06:46:39.901Z,-0.23
2018-02-21T06:49:06.158Z,-0.21
2018-02-21T06:51:32.352Z,-0.26
2018-02-21T06:53:58.540Z,-0.32
2018-02-21T06:56:24.762Z,-0.37
2018-02-21T06:58:50.939Z,-0.40
2018-02-21T07:01:17.165Z,-0.38
2018-02-21T07:03:43.369Z,-0.41
2018-02-21T07:06:09.589Z,-0.42
2018-02-21T07:08:35.876Z,-0.42
2018-02-21T07:11:02.099Z,-0.45
2018-02-21T07:13:28.299Z,-0.47
2018-02-21T07:15:54.547Z,-0.48
2018-02-21T07:18:20.716Z,-0.48
2018-02-21T07:20:46.897Z,-0.45
2018-02-21T07:23:13.073Z,-0.42
2018-02-21T07:25:39.214Z,-0.32
2018-02-21T07:28:05.372Z,-0.23
2018-02-21T07:30:31.621Z,-0.19
2018-02-21T07:32:57.850Z,-0.14
2018-02-21T07:35:24.075Z,-0.09
2018-02-21T07:37:50.449Z,-0.05
2018-02-21T07:40:16.597Z,0.02
2018-02-21T07:42:42.785Z,0.07
2018-02-21T07:45:09.036Z,0.11
2018-02-21T07:47:35.285Z,0.17
2018-02-21T07:50:01.479Z,0.23
2018-02-21T07:52:27.705Z,0.33
2018-02-21T07:54:54.001Z,0.38
2018-02-21T07:57:20.172Z,0.42
2018-02-21T07:59:46.352Z,0.47
2018-02-21T08:02:12.612Z,0.59
2018-02-21T08:04:38.897Z,0.65
2018-02-21T08:07:05.081Z,0.74
2018-02-21T08:09:31.238Z,0.83
2018-02-21T08:11:57.715Z,0.90
2018-02-21T08:14:23.908Z,0.99
2018-02-21T08:16:50.982Z,1.03
2018-02-21T08:19:17.141Z,1.09
2018-02-21T08:21:43.372Z,1.15
2018-02-21T08:24:09.559Z,1.23
2018-02-21T08:26:35.759Z,1.33
2018-02-21T08:29:01.941Z,1.42
2018-02-21T08:31:28.123Z,1.45
2018-02-21T08:33:54.288Z,1.56
2018-02-21T08:36:20.494Z,1.61
2018-02-21T08:38:46.648Z,1.70
2018-02-21T08:41:12.830Z,1.81
2018-02-21T08:43:39.086Z,1.97
2018-02-21T08:46:05.244Z,2.24
2018-02-21T08:48:31.416Z,2.88
2018-02-21T08:50:57.601Z,3.65
2018-02-21T08:53:23.823Z,4.60
2018-02-21T08:55:49.979Z,5.20
2018-02-21T08:58:16.131Z,5.61
2018-02-21T09:00:42.483Z,6.01
2018-02-21T09:03:08.695Z,6.42
2018-02-21T09:05:34.875Z,6.59
2018-02-21T09:08:01.146Z,6.96
2018-02-21T09:10:27.372Z,6.89
2018-02-21T09:12:53.563Z,6.91
2018-02-21T09:15:19.902Z,6.93
2018-02-21T09:17:46.055Z,6.71
2018-02-21T09:20:12.239Z,6.23
2018-02-21T09:22:38.524Z,6.25
2018-02-21T09:25:04.766Z,5.42
2018-02-21T09:27:30.894Z,5.48
2018-02-21T09:29:57.005Z,5.38
2018-02-21T09:32:23.183Z,5.25
2018-02-21T09:34:49.346Z,4.93
2018-02-21T09:37:15.463Z,4.74
2018-02-21T09:39:41.633Z,4.66
2018-02-21T09:42:07.787Z,4.67
2018-02-21T09:44:33.888Z,4.77
2018-02-21T09:47:00.020Z,4.74
2018-02-21T09:49:26.152Z,4.70
2018-02-21T09:51:52.330Z,4.50
2018-02-21T09:54:18.466Z,4.33
2018-02-21T09:56:44.613Z,4.14
2018-02-21T09:59:10.748Z,4.05
2018-02-21T10:01:36.862Z,3.86
2018-02-21T10:04:03.063Z,3.85
2018-02-21T10:06:29.235Z,3.87
2018-02-21T10:08:55.343Z,3.80
2018-02-21T10:11:21.604Z,3.83
2018-02-21T10:13:47.799Z,3.96
2018-02-21T10:16:13.953Z,4.03
2018-02-21T10:18:40.082Z,4.08
2018-02-21T10:21:06.285Z,4.12
2018-02-21T10:23:32.487Z,4.11
2018-02-21T10:25:58.782Z,4.12
2018-02-21T10:28:24.996Z,4.05
2018-02-21T10:30:51.194Z,4.03
2018-02-21T10:33:17.416Z,4.09
2018-02-21T10:35:43.642Z,4.09
2018-02-21T10:38:09.872Z,4.14
2018-02-21T10:40:36.101Z,4.12
2018-02-21T10:43:02.355Z,4.16
2018-02-21T10:45:28.520Z,4.26
2018-02-21T10:47:54.794Z,4.28
2018-02-21T10:50:20.989Z,4.27
2018-02-21T10:52:47.155Z,4.36
2018-02-21T10:55:13.317Z,4.42
2018-02-21T10:57:39.542Z,4.48
2018-02-21T11:00:05.701Z,4.39
2018-02-21T11:02:31.842Z,4.45
2018-02-21T11:04:58.081Z,4.46
2018-02-21T11:07:24.253Z,4.45
2018-02-21T11:09:50.430Z,4.41
2018-02-21T11:12:16.606Z,4.46
2018-02-21T11:14:42.789Z,4.49
2018-02-21T11:17:09.000Z,4.46
2018-02-21T11:19:35.196Z,4.44
2018-02-21T11:22:01.455Z,4.42
2018-02-21T11:24:27.673Z,4.51
2018-02-21T11:26:53.920Z,4.61
2018-02-21T11:29:20.147Z,4.61
2018-02-21T11:31:46.351Z,4.72
2018-02-21T11:34:12.558Z,4.74
2018-02-21T11:36:38.759Z,4.72
2018-02-21T11:39:04.997Z,4.62
2018-02-21T11:41:31.218Z,4.60
2018-02-21T11:43:57.368Z,4.70
2018-02-21T11:46:23.554Z,4.65
2018-02-21T11:48:49.702Z,4.62
2018-02-21T11:51:15.889Z,4.67
2018-02-21T11:53:42.095Z,4.62
2018-02-21T11:56:08.280Z,4.70
2018-02-21T11:58:34.548Z,4.70
2018-02-21T12:01:00.688Z,4.72
2018-02-21T12:03:26.834Z,4.79
2018-02-21T12:05:53.018Z,4.75
2018-02-21T12:08:19.222Z,4.84
2018-02-21T12:10:45.415Z,4.84
2018-02-21T12:13:11.611Z,4.89
2018-02-21T12:15:37.826Z,4.89
2018-02-21T12:18:04.018Z,4.86
2018-02-21T12:20:30.405Z,4.85
2018-02-21T12:22:56.605Z,4.83
2018-02-21T12:25:22.770Z,4.82
2018-02-21T12:27:49.015Z,4.90
2018-02-21T12:30:15.281Z,4.78
2018-02-21T12:32:43.283Z,4.87
2018-02-21T12:35:09.540Z,4.94
2018-02-21T12:37:35.791Z,4.97
2018-02-21T12:40:02.005Z,4.88
2018-02-21T12:42:28.208Z,4.99
2018-02-21T12:44:54.380Z,4.98
2018-02-21T12:47:20.575Z,4.98
2018-02-21T12:49:46.801Z,4.97
2018-02-21T12:52:13.006Z,4.99
2018-02-21T12:54:39.201Z,5.05
2018-02-21T12:57:05.441Z,5.11
2018-02-21T12:59:31.599Z,5.04
2018-02-21T13:01:57.745Z,5.03
2018-02-21T13:04:23.963Z,5.15
2018-02-21T13:06:50.355Z,5.15
2018-02-21T13:09:16.631Z,5.20
2018-02-21T13:11:42.806Z,5.26
2018-02-21T13:14:08.983Z,5.34
2018-02-21T13:16:35.164Z,5.31
2018-02-21T13:19:01.387Z,5.28
2018-02-21T13:21:27.601Z,5.25
2018-02-21T13:23:53.798Z,5.22
2018-02-21T13:26:20.010Z,5.28
2018-02-21T13:28:46.232Z,5.27
2018-02-21T13:31:12.562Z,5.34
2018-02-21T13:33:38.764Z,5.44
2018-02-21T13:36:05.032Z,5.50
2018-02-21T13:38:31.326Z,5.44
2018-02-21T13:40:57.480Z,5.37
2018-02-21T13:43:23.994Z,5.48
2018-02-21T13:45:50.149Z,5.49
2018-02-21T13:48:16.389Z,5.91
2018-02-21T13:50:42.643Z,6.70
2018-02-21T13:53:08.852Z,6.97
2018-02-21T13:55:35.038Z,7.77
2018-02-21T13:58:01.222Z,8.64
2018-02-21T14:00:27.420Z,8.84
2018-02-21T14:02:53.648Z,8.99
2018-02-21T14:05:19.894Z,9.01
2018-02-21T14:07:46.106Z,8.23
2018-02-21T14:10:12.289Z,8.14
2018-02-21T14:12:38.434Z,7.43
2018-02-21T14:15:04.587Z,7.30
2018-02-21T14:17:30.804Z,7.03
2018-02-21T14:19:57.068Z,6.70
2018-02-21T14:22:23.215Z,6.56
2018-02-21T14:24:49.373Z,6.19
2018-02-21T14:27:15.638Z,5.88
2018-02-21T14:29:41.884Z,5.84
2018-02-21T14:32:08.056Z,5.90
2018-02-21T14:34:34.277Z,5.83
2018-02-21T14:37:00.734Z,5.76
2018-02-21T14:39:26.964Z,5.61
2018-02-21T14:41:53.192Z,5.58
2018-02-21T14:44:19.371Z,5.52
2018-02-21T14:46:45.547Z,5.39
2018-02-21T14:49:11.775Z,5.46
2018-02-21T14:51:37.943Z,5.50
2018-02-21T14:54:04.106Z,5.59
2018-02-21T14:56:30.387Z,5.51
2018-02-21T14:58:56.610Z,5.45
2018-02-21T15:01:22.780Z,5.41
2018-02-21T15:03:48.956Z,5.37
2018-02-21T15:06:15.183Z,5.31
2018-02-21T15:08:41.395Z,5.42
2018-02-21T15:11:07.540Z,5.46
2018-02-21T15:13:33.747Z,5.52
2018-02-21T15:15:59.964Z,5.48
2018-02-21T15:18:26.215Z,5.34
2018-02-21T15:20:52.362Z,5.33
2018-02-21T15:23:18.557Z,5.33
2018-02-21T15:25:44.741Z,5.33
2018-02-21T15:28:11.011Z,5.34
2018-02-21T15:30:37.164Z,5.33
2018-02-21T15:33:03.401Z,5.32
2018-02-21T15:35:29.656Z,5.26
2018-02-21T15:37:55.870Z,5.20
2018-02-21T15:40:22.051Z,5.16
2018-02-21T15:42:48.293Z,5.18
2018-02-21T15:45:14.475Z,5.09
2018-02-21T15:47:40.756Z,5.04
2018-02-21T15:50:06.969Z,5.01
2018-02-21T15:52:33.158Z,5.07
2018-02-21T15:54:59.411Z,5.09
2018-02-21T15:57:25.646Z,5.06
2018-02-21T15:59:51.821Z,4.98
2018-02-21T16:02:17.984Z,4.99
2018-02-21T16:04:44.174Z,4.99
2018-02-21T16:07:10.332Z,4.89
2018-02-21T16:09:36.576Z,4.87
2018-02-21T16:12:02.815Z,4.85
2018-02-21T16:14:28.930Z,4.88
2018-02-21T16:16:55.069Z,4.84
2018-02-21T16:19:21.242Z,4.81
2018-02-21T16:21:47.497Z,4.79
2018-02-21T16:24:13.638Z,4.73
2018-02-21T16:26:40.649Z,4.67
2018-02-21T16:29:06.849Z,4.63
2018-02-21T16:31:33.031Z,4.57
2018-02-21T16:33:59.197Z,4.57
2018-02-21T16:36:25.429Z,4.52
2018-02-21T16:38:51.617Z,4.45
2018-02-21T16:41:17.824Z,4.33
2018-02-21T16:43:44.041Z,4.28
2018-02-21T16:46:10.233Z,4.20
2018-02-21T16:48:36.586Z,4.08
2018-02-21T16:51:02.753Z,4.01
2018-02-21T16:53:28.906Z,3.86
2018-02-21T16:55:55.096Z,3.85
2018-02-21T16:58:21.514Z,3.75
2018-02-21T17:00:47.828Z,3.71
2018-02-21T17:03:14.003Z,3.69
2018-02-21T17:05:40.258Z,3.64
2018-02-21T17:08:06.532Z,3.55
2018-02-21T17:10:32.710Z,3.52
2018-02-21T17:12:58.879Z,3.46
2018-02-21T17:15:25.078Z,3.33
2018-02-21T17:17:51.488Z,3.25
2018-02-21T17:20:17.709Z,3.20
2018-02-21T17:22:43.959Z,3.13
2018-02-21T17:25:10.148Z,3.06
2018-02-21T17:27:36.339Z,3.05
2018-02-21T17:30:02.591Z,2.93
2018-02-21T17:32:28.812Z,2.91
2018-02-21T17:34:55.058Z,2.83
2018-02-21T17:37:21.274Z,2.77
2018-02-21T17:39:47.655Z,2.68
2018-02-21T17:42:13.823Z,2.62
2018-02-21T17:44:40.044Z,2.57
2018-02-21T17:47:06.288Z,2.49
2018-02-21T17:49:32.562Z,2.42
2018-02-21T17:51:58.761Z,2.36
2018-02-21T17:54:24.974Z,2.32
2018-02-21T17:56:51.186Z,2.26
2018-02-21T17:59:17.424Z,2.24
2018-02-21T18:01:43.839Z,2.21
2018-02-21T18:04:10.066Z,2.25
2018-02-21T18:06:36.399Z,2.23
2018-02-21T18:09:02.750Z,2.17
2018-02-21T18:11:28.990Z,2.18
2018-02-21T18:13:55.149Z,2.25
2018-02-21T18:16:21.350Z,2.30
2018-02-21T18:18:47.548Z,2.27
2018-02-21T18:21:19.783Z,2.22
2018-02-21T18:23:45.981Z,2.20
2018-02-21T18:26:12.182Z,2.24
2018-02-21T18:28:38.503Z,2.21
2018-02-21T18:31:04.760Z,2.25
2018-02-21T18:33:30.977Z,2.28
2018-02-21T18:35:57.211Z,2.21
2018-02-21T18:38:23.434Z,2.24
2018-02-21T18:40:49.670Z,2.17
2018-02-21T18:43:15.908Z,2.15
2018-02-21T18:45:42.092Z,2.12
2018-02-21T18:48:08.355Z,2.08
2018-02-21T18:50:34.568Z,2.06
2018-02-21T18:53:00.755Z,2.07
2018-02-21T18:55:26.963Z,2.10
2018-02-21T18:57:53.133Z,2.09
2018-02-21T19:00:19.596Z,2.03
2018-02-21T19:02:45.814Z,2.01
2018-02-21T19:05:12.077Z,2.03
2018-02-21T19:07:38.281Z,2.03
2018-02-21T19:10:04.509Z,2.04
2018-02-21T19:12:30.689Z,1.99
2018-02-21T19:14:56.874Z,2.00
2018-02-21T19:17:23.122Z,1.98
2018-02-21T19:19:49.330Z,1.98
2018-02-21T19:22:15.545Z,1.95
2018-02-21T19:24:41.763Z,1.89
2018-02-21T19:27:08.001Z,1.83
2018-02-21T19:29:34.277Z,1.78
2018-02-21T19:32:00.496Z,1.76
2018-02-21T19:34:26.779Z,1.78
2018-02-21T19:36:53.006Z,1.80
2018-02-21T19:39:19.347Z,1.73
2018-02-21T19:41:45.563Z,1.72
2018-02-21T19:44:11.789Z,1.71
2018-02-21T19:46:37.995Z,1.67
2018-02-21T19:49:04.294Z,1.68
2018-02-21T19:51:30.465Z,1.70
2018-02-21T19:53:56.687Z,1.71
2018-02-21T19:56:22.901Z,1.65
2018-02-21T19:58:49.141Z,1.65
2018-02-21T20:01:15.299Z,1.63
2018-02-21T20:03:41.456Z,1.61
2018-02-21T20:06:07.692Z,1.58
2018-02-21T20:08:33.878Z,1.55
2018-02-21T20:11:00.070Z,1.52
2018-02-21T20:13:26.286Z,1.52
2018-02-21T20:15:52.477Z,1.47
2018-02-21T20:18:18.645Z,1.43
2018-02-21T20:20:44.879Z,1.43
2018-02-21T20:23:11.032Z,1.41
2018-02-21T20:25:37.177Z,1.40
2018-02-21T20:28:03.385Z,1.41
2018-02-21T20:30:29.610Z,1.42
2018-02-21T20:32:55.788Z,1.38
2018-02-21T20:35:21.998Z,1.45
2018-02-21T20:37:48.182Z,1.47
2018-02-21T20:40:14.371Z,1.47
2018-02-21T20:42:40.515Z,1.49
2018-02-21T20:45:06.652Z,1.45
2018-02-21T20:47:32.801Z,1.43
2018-02-21T20:49:58.998Z,1.39
2018-02-21T20:52:25.308Z,1.36
2018-02-21T20:54:51.419Z,1.34
2018-02-21T20:57:17.535Z,1.33
2018-02-21T20:59:43.703Z,1.35
2018-02-21T21:02:09.821Z,1.30
2018-02-21T21:04:36.013Z,1.30
2018-02-21T21:07:02.142Z,1.33
2018-02-21T21:09:28.334Z,1.34
2018-02-21T21:11:54.473Z,1.30
2018-02-21T21:14:20.593Z,1.26
2018-02-21T21:16:46.732Z,1.24
2018-02-21T21:19:12.948Z,1.20
2018-02-21T21:21:39.242Z,1.16
2018-02-21T21:24:05.347Z,1.12
2018-02-21T21:26:31.528Z,1.10
2018-02-21T21:28:57.686Z,1.07
2018-02-21T21:31:23.856Z,1.02
2018-02-21T21:33:50.071Z,1.00
2018-02-21T21:36:16.239Z,0.96
2018-02-21T21:38:42.359Z,0.95
2018-02-21T21:41:08.533Z,0.93
2018-02-21T21:43:34.673Z,0.89
2018-02-21T21:46:00.804Z,0.87
2018-02-21T21:48:26.980Z,0.87
2018-02-21T21:50:53.162Z,0.84
2018-02-21T21:53:19.378Z,0.84
2018-02-21T21:55:45.569Z,0.79
2018-02-21T21:58:11.793Z,0.74
2018-02-21T22:00:39.154Z,0.70
2018-02-21T22:03:05.389Z,0.64
2018-02-21T22:05:31.578Z,0.59
2018-02-21T22:07:57.763Z,0.57
2018-02-21T22:10:23.877Z,0.54
2018-02-21T22:12:50.092Z,0.52
2018-02-21T22:15:16.280Z,0.53
2018-02-21T22:17:42.450Z,0.52
2018-02-21T22:20:08.656Z,0.49
2018-02-21T22:22:34.797Z,0.47
2018-02-21T22:25:01.346Z,0.42
2018-02-21T22:27:27.522Z,0.38
2018-02-21T22:29:53.724Z,0.34
2018-02-21T22:32:19.930Z,0.33
2018-02-21T22:34:46.165Z,0.31
2018-02-21T22:37:12.410Z,0.27
2018-02-21T22:39:38.596Z,0.23
2018-02-21T22:42:04.761Z,0.21
2018-02-21T22:44:30.977Z,0.19
2018-02-21T22:46:57.150Z,0.20
2018-02-21T22:49:23.352Z,0.21
2018-02-21T22:51:49.512Z,0.19
2018-02-21T22:54:15.650Z,0.17
2018-02-21T22:56:41.842Z,0.17
2018-02-21T22:59:08.012Z,0.12
2018-02-21T23:01:34.229Z,0.09
2018-02-21T23:04:00.384Z,0.05
2018-02-21T23:06:26.581Z,0.03
2018-02-21T23:08:52.753Z,-0.01
2018-02-21T23:11:18.964Z,-0.02
2018-02-21T23:13:45.103Z,-0.04
2018-02-21T23:16:11.259Z,-0.05
2018-02-21T23:18:37.443Z,-0.07
2018-02-21T23:21:03.654Z,-0.10
2018-02-21T23:23:29.779Z,-0.10
2018-02-21T23:25:56.043Z,-0.12
2018-02-21T23:28:22.204Z,-0.12
2018-02-21T23:30:48.412Z,-0.18
2018-02-21T23:33:14.561Z,-0.18
2018-02-21T23:35:40.772Z,-0.23
2018-02-21T23:38:06.966Z,-0.19
2018-02-21T23:40:33.231Z,-0.19
2018-02-21T23:42:59.453Z,-0.22
2018-02-21T23:45:25.620Z,-0.25
2018-02-21T23:47:51.818Z,-0.25
2018-02-21T23:50:18.024Z,-0.26
2018-02-21T23:52:44.211Z,-0.27
2018-02-21T23:55:10.443Z,-0.27
2018-02-21T23:57:36.659Z,-0.28
